Time;durP1;ratioP1;P1;durP2;ratioP2;P2;SDS_P1;SDS_P2;PMS_P1;PMS_P2;Temp;Humidity;BMP_temperature;BMP_pressure;BME280_temperature;BME280_humidity;BME280_pressure;Samples;Min_cycle;Max_cycle;Signal;HPM_P1;HPM_P2
2022/08/23 00:01:16;;;;;;;2.05;0.70;;;;;;;;;;5035265;28;20119;-53
2022/08/23 00:03:42;;;;;;;0.55;0.55;;;;;;;;;;5034022;28;20072;-53
2022/08/23 00:06:09;;;;;;;0.82;0.70;;;;;;;;;;5032831;28;20520;-53
2022/08/23 00:08:35;;;;;;;0.60;0.60;;;;;;;;;;5038685;28;20120;-56
2022/08/23 00:11:01;;;;;;;0.98;0.98;;;;;;;;;;5032412;28;20088;-50
2022/08/23 00:13:27;;;;;;;0.80;0.70;;;;;;;;;;5030459;28;20042;-58
2022/08/23 00:15:54;;;;;;;0.95;0.88;;;;;;;;;;5033101;28;20468;-50
2022/08/23 00:18:20;;;;;;;2.00;0.93;;;;;;;;;;5032999;28;20081;-50
2022/08/23 00:20:47;;;;;;;1.20;1.10;;;;;;;;;;5036156;28;20615;-56
2022/08/23 00:23:13;;;;;;;1.23;0.90;;;;;;;;;;5032270;28;20493;-59
2022/08/23 00:25:39;;;;;;;0.80;0.80;;;;;;;;;;5035194;28;20537;-52
2022/08/23 00:28:05;;;;;;;1.00;0.85;;;;;;;;;;5035840;28;20051;-56
2022/08/23 00:30:31;;;;;;;1.95;1.02;;;;;;;;;;5034586;28;20051;-52
2022/08/23 00:32:57;;;;;;;0.93;0.93;;;;;;;;;;5034953;28;20128;-56
2022/08/23 00:35:24;;;;;;;1.13;1.00;;;;;;;;;;5030347;28;20498;-52
2022/08/23 00:37:50;;;;;;;0.77;0.77;;;;;;;;;;5034404;28;20056;-55
2022/08/23 00:40:17;;;;;;;1.08;0.70;;;;;;;;;;5037296;28;20078;-50
2022/08/23 00:48:23;;;;;;;1.02;0.90;;;;;;;;;;5033873;28;20053;-53
2022/08/23 00:50:54;;;;;;;1.38;1.27;;;;;;;;;;5038023;28;20441;-52
2022/08/23 00:53:25;;;;;;;1.57;1.40;;;;;;;;;;5034129;28;20048;-54
2022/08/23 00:55:54;;;;;;;1.73;1.17;;;;;;;;;;5044839;28;20298;-52
2022/08/23 00:58:21;;;;;;;1.00;1.00;;;;;;;;;;5045448;28;20056;-52
2022/08/23 01:00:48;;;;;;;1.83;1.38;;;;;;;;;;5046859;28;20449;-54
2022/08/23 01:03:16;;;;;;;1.05;0.90;;;;;;;;;;5046888;28;20049;-53
2022/08/23 01:05:47;;;;;;;1.00;1.00;;;;;;;;;;5042991;28;20087;-53
2022/08/23 01:08:13;;;;;;;1.17;1.08;;;;;;;;;;5044940;28;20053;-56
2022/08/23 01:10:46;;;;;;;2.13;1.27;;;;;;;;;;5047280;28;20084;-52
2022/08/23 01:13:18;;;;;;;1.85;1.27;;;;;;;;;;5046190;28;20087;-52
2022/08/23 01:15:50;;;;;;;1.00;0.95;;;;;;;;;;5047374;28;20052;-52
2022/08/23 01:18:18;;;;;;;1.27;1.10;;;;;;;;;;5044536;28;20091;-54
2022/08/23 01:20:48;;;;;;;1.40;1.23;;;;;;;;;;5046377;28;20452;-53
2022/08/23 01:23:17;;;;;;;1.63;1.17;;;;;;;;;;5044176;28;20045;-56
2022/08/23 01:25:43;;;;;;;1.02;0.93;;;;;;;;;;5047123;28;20072;-52
2022/08/23 01:28:09;;;;;;;0.68;0.57;;;;;;;;;;5045617;28;20052;-55
2022/08/23 01:30:37;;;;;;;1.55;1.10;;;;;;;;;;5046922;28;20470;-52
2022/08/23 01:33:06;;;;;;;1.08;0.82;;;;;;;;;;5046455;28;20055;-57
2022/08/23 01:35:40;;;;;;;0.77;0.77;;;;;;;;;;5045555;28;20149;-52
2022/08/23 01:38:07;;;;;;;2.33;1.20;;;;;;;;;;5046177;28;20060;-58
2022/08/23 01:40:33;;;;;;;0.95;0.82;;;;;;;;;;5045238;28;20029;-57
2022/08/23 01:43:00;;;;;;;0.70;0.70;;;;;;;;;;5045773;28;20383;-53
2022/08/23 01:45:27;;;;;;;0.80;0.80;;;;;;;;;;5046696;28;20095;-63
2022/08/23 01:47:53;;;;;;;0.82;0.82;;;;;;;;;;5045176;28;20037;-53
2022/08/23 01:50:20;;;;;;;0.82;0.75;;;;;;;;;;5046037;28;20049;-53
2022/08/23 01:52:46;;;;;;;1.10;1.00;;;;;;;;;;5045149;28;20089;-61
2022/08/23 01:55:12;;;;;;;1.02;0.90;;;;;;;;;;5040902;28;20715;-49
2022/08/23 01:57:39;;;;;;;1.00;1.00;;;;;;;;;;5033479;28;20056;-55
2022/08/23 02:00:06;;;;;;;1.00;1.00;;;;;;;;;;5035839;28;20519;-51
2022/08/23 02:02:32;;;;;;;0.93;0.93;;;;;;;;;;5033624;28;20060;-57
2022/08/23 02:04:58;;;;;;;0.90;0.90;;;;;;;;;;5037485;28;20566;-54
2022/08/23 02:07:27;;;;;;;1.40;1.20;;;;;;;;;;5035883;28;20110;-57
2022/08/23 02:09:53;;;;;;;1.13;0.90;;;;;;;;;;5034673;28;20083;-53
2022/08/23 02:12:19;;;;;;;1.25;1.15;;;;;;;;;;5032890;28;20458;-55
2022/08/23 02:14:46;;;;;;;1.05;0.98;;;;;;;;;;5041223;28;20051;-53
2022/08/23 02:17:12;;;;;;;0.73;0.73;;;;;;;;;;5014767;28;20570;-53
2022/08/23 02:19:38;;;;;;;1.02;0.93;;;;;;;;;;5031350;28;20045;-56
2022/08/23 02:22:05;;;;;;;1.30;1.20;;;;;;;;;;5031736;28;20128;-55
2022/08/23 02:24:31;;;;;;;1.50;1.40;;;;;;;;;;5030451;28;20124;-51
2022/08/23 02:26:59;;;;;;;0.98;0.98;;;;;;;;;;5036285;28;20053;-58
2022/08/23 02:29:28;;;;;;;0.60;0.60;;;;;;;;;;5029055;28;20049;-55
2022/08/23 02:31:54;;;;;;;0.98;0.98;;;;;;;;;;5035137;28;20080;-56
2022/08/23 02:34:20;;;;;;;1.20;1.10;;;;;;;;;;5030359;28;20437;-52
2022/08/23 02:36:46;;;;;;;1.50;1.40;;;;;;;;;;5039318;28;20041;-54
2022/08/23 02:39:15;;;;;;;1.23;1.13;;;;;;;;;;5035749;28;20052;-53
2022/08/23 02:41:41;;;;;;;1.00;0.90;;;;;;;;;;5015081;28;20056;-62
2022/08/23 02:44:08;;;;;;;0.82;0.82;;;;;;;;;;5031957;28;21112;-53
2022/08/23 02:46:34;;;;;;;0.88;0.88;;;;;;;;;;5034122;28;20048;-54
2022/08/23 02:49:00;;;;;;;1.38;1.27;;;;;;;;;;5035165;28;20132;-49
2022/08/23 02:51:26;;;;;;;0.85;0.77;;;;;;;;;;5030987;28;20048;-52
2022/08/23 02:53:52;;;;;;;1.95;1.15;;;;;;;;;;5037928;28;20056;-55
2022/08/23 02:56:18;;;;;;;1.20;1.10;;;;;;;;;;5045025;28;20057;-51
2022/08/23 02:58:45;;;;;;;1.05;1.05;;;;;;;;;;5044567;28;20159;-55
2022/08/23 03:01:17;;;;;;;2.30;1.10;;;;;;;;;;5044733;28;20060;-52
2022/08/23 03:03:44;;;;;;;1.25;1.15;;;;;;;;;;5045188;28;20088;-56
2022/08/23 03:06:10;;;;;;;1.08;0.98;;;;;;;;;;5044079;28;20114;-51
2022/08/23 03:08:36;;;;;;;1.10;1.00;;;;;;;;;;5045060;28;20041;-55
2022/08/23 03:11:10;;;;;;;0.70;0.70;;;;;;;;;;5044552;28;20067;-52
2022/08/23 03:13:36;;;;;;;1.05;0.93;;;;;;;;;;5044403;28;20163;-49
2022/08/23 03:16:02;;;;;;;1.42;1.20;;;;;;;;;;5044583;28;20128;-60
2022/08/23 03:18:28;;;;;;;1.05;1.00;;;;;;;;;;5044750;28;20048;-51
2022/08/23 03:20:54;;;;;;;1.17;1.08;;;;;;;;;;5044484;28;20056;-52
2022/08/23 03:23:20;;;;;;;1.05;0.90;;;;;;;;;;5044635;28;20045;-52
2022/08/23 03:25:46;;;;;;;1.27;1.17;;;;;;;;;;5045178;28;20955;-57
2022/08/23 03:28:12;;;;;;;1.80;1.00;;;;;;;;;;5044265;28;20037;-53
2022/08/23 03:30:38;;;;;;;0.93;0.90;;;;;;;;;;5044815;28;20786;-55
2022/08/23 03:33:04;;;;;;;1.17;1.08;;;;;;;;;;5044421;28;20110;-61
2022/08/23 03:35:30;;;;;;;0.88;0.88;;;;;;;;;;5044134;28;20075;-52
2022/08/23 03:37:58;;;;;;;1.33;0.93;;;;;;;;;;5044735;28;20059;-62
2022/08/23 03:40:24;;;;;;;1.05;0.98;;;;;;;;;;5044115;28;20049;-53
2022/08/23 03:42:51;;;;;;;0.70;0.70;;;;;;;;;;5044394;28;20103;-53
2022/08/23 03:45:17;;;;;;;1.42;1.10;;;;;;;;;;5044407;28;20092;-54
2022/08/23 03:47:43;;;;;;;0.73;0.73;;;;;;;;;;5043042;28;20529;-55
2022/08/23 03:50:10;;;;;;;0.90;0.90;;;;;;;;;;5044123;28;20514;-57
2022/08/23 03:52:36;;;;;;;0.90;0.90;;;;;;;;;;5042901;28;20102;-49
2022/08/23 03:55:03;;;;;;;1.08;1.08;;;;;;;;;;5039616;28;20085;-57
2022/08/23 03:57:29;;;;;;;1.70;1.55;;;;;;;;;;5035665;28;20051;-49
2022/08/23 03:59:55;;;;;;;1.05;1.02;;;;;;;;;;5035430;28;20173;-52
2022/08/23 04:02:21;;;;;;;1.80;1.20;;;;;;;;;;5032697;28;20121;-51
2022/08/23 04:04:47;;;;;;;1.30;0.98;;;;;;;;;;5034469;28;20080;-52
2022/08/23 04:07:17;;;;;;;2.13;1.00;;;;;;;;;;5029590;28;20425;-53
2022/08/23 04:09:43;;;;;;;1.13;0.93;;;;;;;;;;5026730;28;20052;-55
2022/08/23 04:12:09;;;;;;;1.10;0.90;;;;;;;;;;5036403;28;20053;-54
2022/08/23 04:14:35;;;;;;;1.10;1.08;;;;;;;;;;5034618;28;20048;-54
2022/08/23 04:17:01;;;;;;;1.40;1.30;;;;;;;;;;5033977;28;20410;-52
2022/08/23 04:19:27;;;;;;;0.70;0.70;;;;;;;;;;5036085;28;20052;-61
2022/08/23 04:21:53;;;;;;;1.17;0.85;;;;;;;;;;5033308;28;20502;-51
2022/08/23 04:24:19;;;;;;;1.13;1.02;;;;;;;;;;5012067;28;20054;-59
2022/08/23 04:26:45;;;;;;;0.93;0.82;;;;;;;;;;5031245;28;20049;-58
2022/08/23 04:29:15;;;;;;;1.05;0.82;;;;;;;;;;5037347;28;20071;-52
2022/08/23 04:31:41;;;;;;;0.75;0.75;;;;;;;;;;5033891;28;20045;-58
2022/08/23 04:34:07;;;;;;;1.20;1.10;;;;;;;;;;5037164;28;20750;-55
2022/08/23 04:36:36;;;;;;;0.90;0.90;;;;;;;;;;5041015;28;20105;-58
2022/08/23 04:39:02;;;;;;;0.85;0.85;;;;;;;;;;5038233;28;20041;-51
2022/08/23 04:44:14;;;;;;;1.85;0.90;;;;;;;;;;5028812;28;20053;-58
2022/08/23 04:46:42;;;;;;;1.27;1.20;;;;;;;;;;5034866;28;20083;-50
2022/08/23 04:49:08;;;;;;;1.00;1.00;;;;;;;;;;5036514;28;20107;-57
2022/08/23 04:51:34;;;;;;;1.08;1.08;;;;;;;;;;5038310;28;20418;-53
2022/08/23 04:54:00;;;;;;;1.05;0.95;;;;;;;;;;5038546;28;20041;-52
2022/08/23 04:56:27;;;;;;;1.05;0.95;;;;;;;;;;5037318;28;20053;-56
2022/08/23 04:58:54;;;;;;;0.70;0.70;;;;;;;;;;5035768;28;20045;-52
2022/08/23 05:01:20;;;;;;;0.90;0.90;;;;;;;;;;5033759;28;20176;-54
2022/08/23 05:03:46;;;;;;;1.35;1.17;;;;;;;;;;5031482;28;20505;-61
2022/08/23 05:06:12;;;;;;;1.00;1.00;;;;;;;;;;5035245;28;20045;-55
2022/08/23 05:08:38;;;;;;;1.23;1.05;;;;;;;;;;5035062;28;20128;-56
2022/08/23 05:11:06;;;;;;;0.77;0.77;;;;;;;;;;5035790;28;20044;-54
2022/08/23 05:13:32;;;;;;;1.20;0.90;;;;;;;;;;5034146;28;20038;-54
2022/08/23 05:15:59;;;;;;;0.90;0.90;;;;;;;;;;5036460;28;20492;-51
2022/08/23 05:18:26;;;;;;;1.30;0.70;;;;;;;;;;5040360;28;20051;-55
2022/08/23 05:20:53;;;;;;;1.27;0.93;;;;;;;;;;5036217;28;20077;-56
2022/08/23 05:23:19;;;;;;;1.85;1.02;;;;;;;;;;5033731;28;20037;-51
2022/08/23 05:25:48;;;;;;;0.98;0.88;;;;;;;;;;5034451;28;20092;-60
2022/08/23 05:28:25;;;;;;;1.17;1.08;;;;;;;;;;5037738;28;20413;-59
2022/08/23 05:31:00;;;;;;;1.40;1.27;;;;;;;;;;5033001;28;20053;-58
2022/08/23 05:33:27;;;;;;;1.00;1.00;;;;;;;;;;5039212;28;20520;-50
2022/08/23 05:35:53;;;;;;;1.02;1.02;;;;;;;;;;5033458;28;20037;-50
2022/08/23 05:38:20;;;;;;;1.23;0.80;;;;;;;;;;5036968;28;20059;-52
2022/08/23 05:40:53;;;;;;;1.13;1.08;;;;;;;;;;5031076;28;20081;-59
2022/08/23 05:43:19;;;;;;;1.33;1.20;;;;;;;;;;5034273;28;20045;-53
2022/08/23 05:45:46;;;;;;;0.93;0.93;;;;;;;;;;5031918;28;20048;-53
2022/08/23 05:48:13;;;;;;;1.20;1.10;;;;;;;;;;5034979;28;20044;-52
2022/08/23 05:50:39;;;;;;;1.27;1.17;;;;;;;;;;5032485;28;20067;-57
2022/08/23 05:53:07;;;;;;;0.77;0.77;;;;;;;;;;5032633;28;20128;-52
2022/08/23 05:55:33;;;;;;;1.70;1.60;;;;;;;;;;5042844;28;20166;-52
2022/08/23 05:57:59;;;;;;;2.45;1.90;;;;;;;;;;5042732;28;20056;-54
2022/08/23 06:00:25;;;;;;;1.48;1.10;;;;;;;;;;5046988;28;20099;-52
2022/08/23 06:02:51;;;;;;;1.17;1.08;;;;;;;;;;5045514;28;20463;-52
2022/08/23 06:05:18;;;;;;;0.80;0.80;;;;;;;;;;5045758;28;20422;-54
2022/08/23 06:07:44;;;;;;;0.70;0.70;;;;;;;;;;5046336;28;20045;-51
2022/08/23 06:10:10;;;;;;;1.13;1.08;;;;;;;;;;5045387;28;20128;-51
2022/08/23 06:12:36;;;;;;;1.45;1.35;;;;;;;;;;5044947;28;20037;-54
2022/08/23 06:15:02;;;;;;;1.42;1.33;;;;;;;;;;5044579;28;20660;-53
2022/08/23 06:17:28;;;;;;;2.13;1.35;;;;;;;;;;5045612;28;20060;-56
2022/08/23 06:19:54;;;;;;;1.88;1.77;;;;;;;;;;5046451;28;20052;-55
2022/08/23 06:22:20;;;;;;;1.88;1.77;;;;;;;;;;5044536;28;20045;-55
2022/08/23 06:24:46;;;;;;;;;;;;;;;;;;5046084;28;20085;-53
2022/08/23 06:27:12;;;;;;;0.70;0.70;;;;;;;;;;5028552;28;19920;-52
2022/08/23 06:29:39;;;;;;;1.00;1.00;;;;;;;;;;5045062;28;20037;-52
2022/08/23 06:32:05;;;;;;;1.77;1.67;;;;;;;;;;5042067;28;20673;-52
2022/08/23 06:34:33;;;;;;;2.50;2.30;;;;;;;;;;5044541;28;20497;-57
2022/08/23 06:37:03;;;;;;;2.47;2.28;;;;;;;;;;5044594;28;20546;-54
2022/08/23 06:39:30;;;;;;;2.50;2.30;;;;;;;;;;5044124;28;19924;-52
2022/08/23 06:41:56;;;;;;;;;;;;;;;;;;5046170;28;19990;-56
2022/08/23 06:44:22;;;;;;;;;;;;;;;;;;5045382;28;19925;-51
2022/08/23 06:46:48;;;;;;;;;;;;;;;;;;5035373;28;20270;-56
2022/08/23 06:49:15;;;;;;;1.75;1.65;;;;;;;;;;5046417;28;20311;-50
2022/08/23 06:51:42;;;;;;;1.90;1.80;;;;;;;;;;5045679;28;20094;-53
2022/08/23 06:54:08;;;;;;;;;;;;;;;;;;5046156;28;19920;-56
2022/08/23 06:56:35;;;;;;;1.50;1.40;;;;;;;;;;5046303;28;20044;-58
2022/08/23 06:59:04;;;;;;;1.02;0.93;;;;;;;;;;5045285;28;20051;-50
2022/08/23 07:01:36;;;;;;;2.20;2.10;;;;;;;;;;5043429;28;20049;-55
2022/08/23 07:04:03;;;;;;;2.05;1.88;;;;;;;;;;5035875;28;20048;-56
2022/08/23 07:06:29;;;;;;;2.90;1.80;;;;;;;;;;5043019;28;20450;-53
2022/08/23 07:08:55;;;;;;;1.98;1.88;;;;;;;;;;5045226;28;20146;-50
2022/08/23 07:11:22;;;;;;;3.05;2.85;;;;;;;;;;5043763;28;20048;-56
2022/08/23 07:13:48;;;;;;;4.80;2.85;;;;;;;;;;5044159;28;20048;-51
2022/08/23 07:16:18;;;;;;;2.90;2.60;;;;;;;;;;5038569;28;19936;-56
2022/08/23 07:18:44;;;;;;;3.60;3.30;;;;;;;;;;5044040;28;20079;-59
2022/08/23 07:21:11;;;;;;;;;;;;;;;;;;5045180;28;20170;-52
2022/08/23 07:23:38;;;;;;;2.53;2.30;;;;;;;;;;5043526;28;19935;-53
2022/08/23 07:26:07;;;;;;;2.20;2.03;;;;;;;;;;5044462;28;19924;-55
2022/08/23 07:28:33;;;;;;;2.30;2.10;;;;;;;;;;5044997;28;20041;-53
2022/08/23 07:31:13;;;;;;;2.17;2.00;;;;;;;;;;5044841;28;20078;-49
2022/08/23 07:33:39;;;;;;;2.65;2.40;;;;;;;;;;5044345;28;20041;-53
2022/08/23 07:36:06;;;;;;;4.30;3.78;;;;;;;;;;5043291;28;20074;-53
2022/08/23 07:38:33;;;;;;;3.00;2.70;;;;;;;;;;5043433;28;20498;-53
2022/08/23 07:40:59;;;;;;;;;;;;;;;;;;5044538;28;19951;-56
2022/08/23 07:43:25;;;;;;;4.78;3.17;;;;;;;;;;5041522;28;20048;-50
2022/08/23 07:45:51;;;;;;;3.33;3.13;;;;;;;;;;5042898;28;20048;-55
2022/08/23 07:48:17;;;;;;;3.00;2.80;;;;;;;;;;5043567;28;20672;-49
2022/08/23 07:50:51;;;;;;;3.00;2.72;;;;;;;;;;5047031;28;20139;-54
2022/08/23 07:53:17;;;;;;;2.45;2.10;;;;;;;;;;5048841;28;20053;-52
2022/08/23 07:55:43;;;;;;;2.50;2.30;;;;;;;;;;5043908;28;20088;-52
2022/08/23 07:58:09;;;;;;;2.20;2.00;;;;;;;;;;5042361;28;20037;-57
2022/08/23 08:00:35;;;;;;;2.38;2.28;;;;;;;;;;5047283;28;20191;-52
2022/08/23 08:03:01;;;;;;;3.15;2.42;;;;;;;;;;5029823;28;20083;-51
2022/08/23 08:05:27;;;;;;;2.60;1.90;;;;;;;;;;5048131;28;20072;-63
2022/08/23 08:07:53;;;;;;;1.98;1.88;;;;;;;;;;5048213;28;20048;-54
2022/08/23 08:10:19;;;;;;;2.63;2.42;;;;;;;;;;5047883;28;20461;-56
2022/08/23 08:12:45;;;;;;;2.90;2.67;;;;;;;;;;5048236;28;20052;-54
2022/08/23 08:15:11;;;;;;;3.08;2.30;;;;;;;;;;5047756;28;20045;-58
2022/08/23 08:17:37;;;;;;;2.20;1.98;;;;;;;;;;5047969;28;20051;-51
2022/08/23 08:20:04;;;;;;;2.13;1.90;;;;;;;;;;5048164;28;20041;-55
2022/08/23 08:22:30;;;;;;;1.83;1.60;;;;;;;;;;5047630;28;20084;-52
2022/08/23 08:24:56;;;;;;;3.03;2.22;;;;;;;;;;5048949;28;20081;-54
2022/08/23 08:27:22;;;;;;;1.90;1.80;;;;;;;;;;5048488;28;20119;-54
2022/08/23 08:29:48;;;;;;;3.88;1.65;;;;;;;;;;5047292;28;20463;-53
2022/08/23 08:32:14;;;;;;;3.15;1.60;;;;;;;;;;5048078;28;20053;-64
2022/08/23 08:34:40;;;;;;;1.48;1.38;;;;;;;;;;5047453;28;20045;-53
2022/08/23 08:37:06;;;;;;;0.90;0.90;;;;;;;;;;5047112;28;20048;-53
2022/08/23 08:39:32;;;;;;;1.50;1.40;;;;;;;;;;5045867;28;20425;-52
2022/08/23 08:42:17;;;;;;;1.95;1.15;;;;;;;;;;5038357;28;20045;-51
2022/08/23 08:44:58;;;;;;;1.35;1.25;;;;;;;;;;5036130;28;20594;-52
2022/08/23 08:47:40;;;;;;;1.45;1.35;;;;;;;;;;5036252;28;20053;-54
2022/08/23 08:50:06;;;;;;;1.30;1.00;;;;;;;;;;5040783;28;20441;-52
2022/08/23 08:52:37;;;;;;;1.88;1.20;;;;;;;;;;5039438;28;20504;-55
2022/08/23 08:55:10;;;;;;;1.60;1.08;;;;;;;;;;5047010;28;20436;-52
2022/08/23 08:57:41;;;;;;;1.27;1.17;;;;;;;;;;5047601;28;20506;-55
2022/08/23 09:00:08;;;;;;;2.30;1.35;;;;;;;;;;5030123;28;20417;-52
2022/08/23 09:02:35;;;;;;;1.85;1.50;;;;;;;;;;5047447;28;20048;-56
2022/08/23 09:05:03;;;;;;;1.35;1.25;;;;;;;;;;5047457;28;20045;-56
2022/08/23 09:07:29;;;;;;;1.27;1.10;;;;;;;;;;5048173;28;20044;-55
2022/08/23 09:10:17;;;;;;;1.13;1.10;;;;;;;;;;5048294;28;20077;-55
2022/08/23 09:12:48;;;;;;;1.08;0.98;;;;;;;;;;5047604;28;20425;-55
2022/08/23 09:15:20;;;;;;;2.28;1.15;;;;;;;;;;5048232;28;20080;-53
2022/08/23 09:17:51;;;;;;;1.30;1.17;;;;;;;;;;5029263;28;20059;-60
2022/08/23 09:20:19;;;;;;;2.03;1.33;;;;;;;;;;5047951;28;20053;-55
2022/08/23 09:22:47;;;;;;;1.70;1.42;;;;;;;;;;5048342;28;20057;-59
2022/08/23 09:25:15;;;;;;;2.17;1.40;;;;;;;;;;5046974;28;20087;-56
2022/08/23 09:27:43;;;;;;;2.35;1.85;;;;;;;;;;5048033;28;20092;-53
2022/08/23 09:30:10;;;;;;;1.65;1.50;;;;;;;;;;5047582;28;20508;-54
2022/08/23 09:32:37;;;;;;;1.70;1.30;;;;;;;;;;5046976;28;20044;-54
2022/08/23 09:35:06;;;;;;;1.88;1.48;;;;;;;;;;5047597;28;20045;-56
2022/08/23 09:37:44;;;;;;;1.20;1.10;;;;;;;;;;5048215;28;20041;-53
2022/08/23 09:40:18;;;;;;;1.30;1.20;;;;;;;;;;5047197;28;20095;-55
2022/08/23 09:42:46;;;;;;;1.52;1.40;;;;;;;;;;5047834;28;20703;-55
2022/08/23 09:45:30;;;;;;;1.30;1.02;;;;;;;;;;5047599;28;20041;-56
2022/08/23 09:47:57;;;;;;;1.98;1.40;;;;;;;;;;5047006;28;20520;-53
2022/08/23 09:50:26;;;;;;;1.70;1.60;;;;;;;;;;5047962;28;20501;-56
2022/08/23 09:53:00;;;;;;;2.20;1.77;;;;;;;;;;5047494;28;20049;-53
2022/08/23 09:55:28;;;;;;;2.38;1.40;;;;;;;;;;5047586;28;20057;-51
2022/08/23 09:57:54;;;;;;;1.95;1.30;;;;;;;;;;5039986;28;20523;-57
2022/08/23 10:00:27;;;;;;;1.48;1.38;;;;;;;;;;5044423;28;20069;-57
2022/08/23 10:02:56;;;;;;;1.95;1.30;;;;;;;;;;5045400;28;20092;-53
2022/08/23 10:05:30;;;;;;;2.58;1.50;;;;;;;;;;5046217;28;20511;-53
2022/08/23 10:08:00;;;;;;;1.77;1.40;;;;;;;;;;5046515;28;20060;-57
2022/08/23 10:10:46;;;;;;;1.00;1.00;;;;;;;;;;5047366;28;20082;-53
2022/08/23 10:13:13;;;;;;;1.40;1.30;;;;;;;;;;5046331;28;20080;-57
2022/08/23 10:15:52;;;;;;;0.80;0.80;;;;;;;;;;5046566;28;20094;-59
2022/08/23 10:18:18;;;;;;;1.30;1.10;;;;;;;;;;5046509;28;20060;-52
2022/08/23 10:20:47;;;;;;;1.30;1.05;;;;;;;;;;5046392;28;20049;-54
2022/08/23 10:23:21;;;;;;;1.13;1.00;;;;;;;;;;5046155;28;20132;-56
2022/08/23 10:25:57;;;;;;;2.85;0.93;;;;;;;;;;5046543;28;20040;-56
2022/08/23 10:31:23;;;;;;;1.27;1.15;;;;;;;;;;5028781;28;20257;-53
2022/08/23 10:33:59;;;;;;;3.08;1.30;;;;;;;;;;5046785;28;20053;-55
2022/08/23 10:36:28;;;;;;;1.05;0.95;;;;;;;;;;5045115;28;20127;-53
2022/08/23 10:38:59;;;;;;;1.10;1.00;;;;;;;;;;5046780;28;20132;-55
2022/08/23 10:41:25;;;;;;;1.50;1.10;;;;;;;;;;5046913;28;20048;-57
2022/08/23 10:44:21;;;;;;;1.70;1.10;;;;;;;;;;5045661;28;20047;-53
2022/08/23 10:46:50;;;;;;;1.38;1.20;;;;;;;;;;4989387;28;20241;-57
2022/08/23 10:49:16;;;;;;;5.40;1.65;;;;;;;;;;5025925;28;20045;-53
2022/08/23 10:51:44;;;;;;;0.98;0.90;;;;;;;;;;5026570;28;20513;-58
2022/08/23 10:54:17;;;;;;;2.20;1.13;;;;;;;;;;5039497;28;20053;-56
2022/08/23 10:56:43;;;;;;;1.40;0.90;;;;;;;;;;5045912;28;20056;-58
2022/08/23 10:59:09;;;;;;;1.80;1.00;;;;;;;;;;5046007;28;20123;-56
2022/08/23 11:01:54;;;;;;;2.05;0.90;;;;;;;;;;5046226;28;20190;-59
2022/08/23 11:04:33;;;;;;;1.08;0.90;;;;;;;;;;5045397;28;20464;-57
2022/08/23 11:07:00;;;;;;;1.02;0.93;;;;;;;;;;5045914;28;20045;-55
2022/08/23 11:09:27;;;;;;;1.92;1.15;;;;;;;;;;5046587;28;20052;-55
2022/08/23 11:12:01;;;;;;;1.83;1.40;;;;;;;;;;5045734;28;20056;-54
2022/08/23 11:14:30;;;;;;;2.72;1.35;;;;;;;;;;5046142;28;20140;-64
2022/08/23 11:16:58;;;;;;;1.95;1.23;;;;;;;;;;5039470;28;20122;-54
2022/08/23 11:19:43;;;;;;;1.42;1.10;;;;;;;;;;5034507;28;20083;-54
2022/08/23 11:22:12;;;;;;;1.88;1.35;;;;;;;;;;5036607;28;20045;-58
2022/08/23 11:24:49;;;;;;;1.98;1.00;;;;;;;;;;5044431;28;20049;-56
2022/08/23 11:27:25;;;;;;;1.33;1.02;;;;;;;;;;5032735;28;20532;-59
2022/08/23 11:29:51;;;;;;;0.95;0.80;;;;;;;;;;5036822;28;20043;-53
2022/08/23 11:32:17;;;;;;;1.95;1.30;;;;;;;;;;5039041;28;20049;-54
2022/08/23 11:34:47;;;;;;;1.17;1.08;;;;;;;;;;5037514;28;20536;-60
2022/08/23 11:37:19;;;;;;;2.35;1.50;;;;;;;;;;5044274;28;20039;-62
2022/08/23 11:39:58;;;;;;;1.65;1.20;;;;;;;;;;5038506;28;20040;-57
2022/08/23 11:42:30;;;;;;;1.42;1.30;;;;;;;;;;5043465;28;20065;-56
2022/08/23 11:44:57;;;;;;;1.20;1.00;;;;;;;;;;5045605;28;20048;-59
2022/08/23 11:47:28;;;;;;;1.45;1.15;;;;;;;;;;5042042;28;20052;-58
2022/08/23 11:50:01;;;;;;;2.60;1.47;;;;;;;;;;5038032;28;20052;-56
2022/08/23 11:52:30;;;;;;;1.90;1.25;;;;;;;;;;5042384;28;20288;-61
2022/08/23 11:54:56;;;;;;;2.97;1.13;;;;;;;;;;5033552;28;20053;-55
2022/08/23 11:57:35;;;;;;;1.83;1.02;;;;;;;;;;5042500;28;20091;-58
2022/08/23 12:00:21;;;;;;;0.88;0.88;;;;;;;;;;5038272;28;20061;-53
2022/08/23 12:02:54;;;;;;;2.05;1.42;;;;;;;;;;5037654;28;20528;-53
2022/08/23 12:05:31;;;;;;;1.20;1.00;;;;;;;;;;5042366;28;20047;-54
2022/08/23 12:08:03;;;;;;;1.05;1.00;;;;;;;;;;5033236;28;20055;-65
2022/08/23 12:10:41;;;;;;;1.50;1.20;;;;;;;;;;5042225;28;20481;-56
2022/08/23 12:13:22;;;;;;;1.70;1.20;;;;;;;;;;5039947;28;20425;-57
2022/08/23 12:16:06;;;;;;;1.27;1.17;;;;;;;;;;5036282;28;20065;-50
2022/08/23 12:18:33;;;;;;;0.73;0.68;;;;;;;;;;5019448;28;20128;-59
2022/08/23 12:21:01;;;;;;;1.35;1.10;;;;;;;;;;5038585;28;20064;-60
2022/08/23 12:23:28;;;;;;;1.23;1.13;;;;;;;;;;5035510;28;20237;-65
2022/08/23 12:25:58;;;;;;;1.35;1.10;;;;;;;;;;5032453;28;20091;-58
2022/08/23 12:28:38;;;;;;;1.88;1.25;;;;;;;;;;5038910;28;20134;-59
2022/08/23 12:31:33;;;;;;;1.38;0.93;;;;;;;;;;5039061;28;20045;-56
2022/08/23 12:34:18;;;;;;;1.35;0.95;;;;;;;;;;4962974;28;20201;-53
2022/08/23 12:37:03;;;;;;;0.77;0.70;;;;;;;;;;5039219;28;20048;-57
2022/08/23 12:39:33;;;;;;;1.10;1.00;;;;;;;;;;5043913;28;20477;-54
2022/08/23 12:42:14;;;;;;;1.45;1.02;;;;;;;;;;5039136;28;20405;-55
2022/08/23 12:44:41;;;;;;;1.50;1.40;;;;;;;;;;5038216;28;20629;-56
2022/08/23 12:47:13;;;;;;;1.77;1.35;;;;;;;;;;5030345;28;20498;-56
2022/08/23 12:49:39;;;;;;;1.15;1.05;;;;;;;;;;5036286;28;20720;-54
2022/08/23 12:52:07;;;;;;;2.17;0.98;;;;;;;;;;5032887;28;20056;-54
2022/08/23 12:54:38;;;;;;;1.20;1.08;;;;;;;;;;5045770;28;20092;-53
2022/08/23 12:57:10;;;;;;;1.55;0.90;;;;;;;;;;5033126;28;20056;-55
2022/08/23 12:59:36;;;;;;;0.90;0.90;;;;;;;;;;5043092;28;20055;-56
2022/08/23 13:02:03;;;;;;;1.75;0.80;;;;;;;;;;5033060;28;20045;-53
2022/08/23 13:04:30;;;;;;;2.38;1.63;;;;;;;;;;5036328;28;20045;-55
2022/08/23 13:06:58;;;;;;;1.55;1.35;;;;;;;;;;5038707;28;20041;-54
2022/08/23 13:09:32;;;;;;;1.27;1.17;;;;;;;;;;5033616;28;20045;-52
2022/08/23 13:11:58;;;;;;;1.00;0.90;;;;;;;;;;5040100;28;20139;-59
2022/08/23 13:14:48;;;;;;;1.50;1.00;;;;;;;;;;5039661;28;20080;-55
2022/08/23 13:17:26;;;;;;;0.47;0.47;;;;;;;;;;5029150;28;20061;-57
2022/08/23 13:19:54;;;;;;;1.48;0.70;;;;;;;;;;5039786;28;20080;-53
2022/08/23 13:22:27;;;;;;;1.00;0.70;;;;;;;;;;5037660;28;20041;-56
2022/08/23 13:25:09;;;;;;;1.58;1.08;;;;;;;;;;5042014;28;20105;-56
2022/08/23 13:27:44;;;;;;;1.30;1.20;;;;;;;;;;5038536;28;20041;-53
2022/08/23 13:30:10;;;;;;;1.75;1.20;;;;;;;;;;5043710;28;20041;-56
2022/08/23 13:32:38;;;;;;;1.30;1.20;;;;;;;;;;5039312;28;20096;-51
2022/08/23 13:35:27;;;;;;;1.23;1.13;;;;;;;;;;5037527;28;20045;-55
2022/08/23 13:37:55;;;;;;;1.13;1.02;;;;;;;;;;5036447;28;20091;-53
2022/08/23 13:40:26;;;;;;;1.67;1.50;;;;;;;;;;5046692;28;20098;-57
2022/08/23 13:42:57;;;;;;;3.15;1.80;;;;;;;;;;5035801;28;20077;-50
2022/08/23 13:45:26;;;;;;;1.70;1.60;;;;;;;;;;5042304;28;20120;-55
2022/08/23 13:48:07;;;;;;;2.88;1.50;;;;;;;;;;5033491;28;20037;-56
2022/08/23 13:50:34;;;;;;;1.60;1.50;;;;;;;;;;5046461;28;20128;-54
2022/08/23 13:53:00;;;;;;;1.45;1.30;;;;;;;;;;5042489;28;20084;-55
2022/08/23 13:55:27;;;;;;;1.15;1.05;;;;;;;;;;5039016;28;20053;-54
2022/08/23 13:57:54;;;;;;;2.35;1.25;;;;;;;;;;5034980;28;20407;-54
2022/08/23 14:00:20;;;;;;;1.48;1.27;;;;;;;;;;5035525;28;20402;-57
2022/08/23 14:02:47;;;;;;;0.93;0.90;;;;;;;;;;5034130;28;20063;-57
2022/08/23 14:05:14;;;;;;;1.02;1.00;;;;;;;;;;5040496;28;20583;-51
2022/08/23 14:07:40;;;;;;;1.20;1.10;;;;;;;;;;5041866;28;20048;-56
2022/08/23 14:10:07;;;;;;;1.10;1.00;;;;;;;;;;5036569;28;20132;-51
2022/08/23 14:12:33;;;;;;;1.02;0.88;;;;;;;;;;5040737;28;20049;-56
2022/08/23 14:15:01;;;;;;;1.40;1.23;;;;;;;;;;5040953;28;20502;-58
2022/08/23 14:17:27;;;;;;;0.90;0.70;;;;;;;;;;5044805;28;20048;-56
2022/08/23 14:19:53;;;;;;;0.75;0.75;;;;;;;;;;5046277;28;20117;-53
2022/08/23 14:22:19;;;;;;;0.73;0.70;;;;;;;;;;5029780;28;20080;-55
2022/08/23 14:24:45;;;;;;;0.98;0.88;;;;;;;;;;5043859;28;20071;-53
2022/08/23 14:27:12;;;;;;;1.02;0.75;;;;;;;;;;5040137;28;20076;-57
2022/08/23 14:29:38;;;;;;;0.93;0.63;;;;;;;;;;5043815;28;20529;-55
2022/08/23 14:32:04;;;;;;;0.75;0.70;;;;;;;;;;5036617;28;20087;-54
2022/08/23 14:34:30;;;;;;;0.50;0.50;;;;;;;;;;5039354;28;20040;-57
2022/08/23 14:36:57;;;;;;;1.45;1.00;;;;;;;;;;5046809;28;20476;-54
2022/08/23 14:39:24;;;;;;;0.73;0.68;;;;;;;;;;5038709;28;20132;-55
2022/08/23 14:41:50;;;;;;;0.57;0.40;;;;;;;;;;5038575;28;20061;-57
2022/08/23 14:44:16;;;;;;;0.50;0.47;;;;;;;;;;5039526;28;20041;-57
2022/08/23 14:46:43;;;;;;;0.52;0.40;;;;;;;;;;5041000;28;20171;-54
2022/08/23 14:49:09;;;;;;;0.68;0.50;;;;;;;;;;5043040;28;20041;-53
2022/08/23 14:51:38;;;;;;;1.10;0.85;;;;;;;;;;5037089;28;20045;-58
2022/08/23 14:54:05;;;;;;;0.50;0.50;;;;;;;;;;5039653;28;20042;-54
2022/08/23 14:56:31;;;;;;;0.80;0.60;;;;;;;;;;5033695;28;20502;-56
2022/08/23 14:58:58;;;;;;;0.47;0.47;;;;;;;;;;5045083;28;20040;-61
2022/08/23 15:01:24;;;;;;;0.77;0.73;;;;;;;;;;5038834;28;20069;-51
2022/08/23 15:03:50;;;;;;;1.75;0.98;;;;;;;;;;5034921;28;20517;-53
2022/08/23 15:06:17;;;;;;;1.00;0.90;;;;;;;;;;5038553;28;20041;-54